createdAt,value
2023-03-16T00:00:57.440Z,96858.38
2023-03-16T00:03:46.512Z,96856.66
2023-03-16T00:06:36.648Z,96861.00
2023-03-16T00:09:32.018Z,96862.84
2023-03-16T00:12:22.921Z,96859.28
2023-03-16T00:15:11.959Z,96859.09
2023-03-16T00:18:02.662Z,96855.78
2023-03-16T00:20:52.864Z,96849.78
2023-03-16T00:23:42.822Z,96846.63
2023-03-16T00:26:31.801Z,96851.00
2023-03-16T00:29:22.869Z,96857.69
2023-03-16T00:32:11.682Z,96857.53
2023-03-16T00:35:03.203Z,96846.22
2023-03-16T00:37:52.871Z,96850.03
2023-03-16T00:40:41.460Z,96850.53
2023-03-16T00:43:32.385Z,96854.75
2023-03-16T00:46:28.982Z,96853.41
2023-03-16T00:49:17.850Z,96817.03
2023-03-16T00:52:16.675Z,96860.94
2023-03-16T00:55:10.833Z,96844.84
2023-03-16T00:58:01.208Z,96862.28
2023-03-16T01:00:51.293Z,96862.16
2023-03-16T01:03:41.182Z,96865.34
2023-03-16T01:06:29.724Z,96860.31
2023-03-16T01:09:20.550Z,96861.00
2023-03-16T01:12:11.756Z,96858.97
2023-03-16T01:15:01.284Z,96860.66
2023-03-16T01:17:49.810Z,96852.53
2023-03-16T01:20:39.216Z,96862.50
2023-03-16T01:23:30.480Z,96858.50
2023-03-16T01:26:20.855Z,96849.38
2023-03-16T01:29:10.086Z,96839.22
2023-03-16T01:31:58.795Z,96834.56
2023-03-16T01:34:47.974Z,96832.25
2023-03-16T01:37:37.514Z,96836.56
2023-03-16T01:40:37.918Z,96844.06
2023-03-16T01:43:30.308Z,96848.09
2023-03-16T01:46:24.411Z,96843.94
2023-03-16T01:49:18.862Z,96828.28
2023-03-16T01:52:12.465Z,96846.47
2023-03-16T01:55:08.306Z,96840.63
2023-03-16T01:57:57.523Z,96841.47
2023-03-16T02:00:47.943Z,96847.34
2023-03-16T02:03:44.523Z,96833.84
2023-03-16T02:06:40.867Z,96843.47
2023-03-16T02:09:31.859Z,96839.50
2023-03-16T02:12:21.764Z,96830.38
2023-03-16T02:15:16.488Z,96831.88
2023-03-16T02:18:08.553Z,96833.19
2023-03-16T02:21:06.744Z,96835.88
2023-03-16T02:23:55.533Z,96838.69
2023-03-16T02:26:52.395Z,96849.69
2023-03-16T02:30:09.159Z,96837.38
2023-03-16T02:33:06.886Z,96832.19
2023-03-16T02:35:55.657Z,96836.53
2023-03-16T02:38:46.046Z,96842.22
2023-03-16T02:41:35.634Z,96848.38
2023-03-16T02:44:29.399Z,96838.22
2023-03-16T02:47:25.998Z,96829.75
2023-03-16T02:50:15.539Z,96826.25
2023-03-16T02:53:04.146Z,96824.56
2023-03-16T02:55:53.693Z,96834.91
2023-03-16T02:58:42.442Z,96831.44
2023-03-16T03:01:36.653Z,96836.41
2023-03-16T03:04:26.712Z,96833.91
2023-03-16T03:07:17.507Z,96834.22
2023-03-16T03:10:22.332Z,96839.06
2023-03-16T03:13:12.852Z,96850.38
2023-03-16T03:16:02.749Z,96846.41
2023-03-16T03:18:53.874Z,96845.91
2023-03-16T03:21:43.941Z,96859.41
2023-03-16T03:24:32.795Z,96856.22
2023-03-16T03:27:22.644Z,96847.22
2023-03-16T03:30:15.689Z,96855.72
2023-03-16T03:33:06.322Z,96849.56
2023-03-16T03:35:56.712Z,96852.25
2023-03-16T03:38:50.760Z,96817.44
2023-03-16T03:41:41.681Z,96843.41
2023-03-16T03:44:35.006Z,96849.22
2023-03-16T03:47:24.045Z,96843.41
2023-03-16T03:50:15.757Z,96840.91
2023-03-16T03:53:17.669Z,96844.06
2023-03-16T03:56:32.038Z,96840.91
2023-03-16T03:59:21.991Z,96838.22
2023-03-16T04:02:29.458Z,96841.53
2023-03-16T04:05:19.140Z,96838.91
2023-03-16T04:08:11.767Z,96837.22
2023-03-16T04:11:01.421Z,96836.75
2023-03-16T04:13:54.543Z,96825.44
2023-03-16T04:16:44.359Z,96826.91
2023-03-16T04:19:36.298Z,96828.41
2023-03-16T04:22:26.715Z,96828.75
2023-03-16T04:25:18.196Z,96836.06
2023-03-16T04:28:09.477Z,96830.72
2023-03-16T04:31:04.639Z,96817.06
2023-03-16T04:33:57.808Z,96844.06
2023-03-16T04:36:47.429Z,96859.53
2023-03-16T04:39:36.124Z,96854.53
2023-03-16T04:42:26.593Z,96855.53
2023-03-16T04:45:17.945Z,96851.19
2023-03-16T04:48:10.952Z,96855.19
2023-03-16T04:51:01.487Z,96848.69
2023-03-16T04:53:53.800Z,96843.34
2023-03-16T04:56:53.021Z,96839.50
2023-03-16T04:59:57.539Z,96848.69
2023-03-16T05:03:11.458Z,96834.88
2023-03-16T05:06:00.307Z,96815.34
2023-03-16T05:08:51.189Z,96815.78
2023-03-16T05:11:41.314Z,96826.16
2023-03-16T05:14:36.472Z,96820.00
2023-03-16T05:17:44.488Z,96812.19
2023-03-16T05:20:36.581Z,96813.31
2023-03-16T05:23:27.626Z,96824.47
2023-03-16T05:26:22.109Z,96815.84
2023-03-16T05:29:12.096Z,96819.16
2023-03-16T05:32:01.718Z,96809.84
2023-03-16T05:34:53.089Z,96807.88
2023-03-16T05:37:45.333Z,96812.19
2023-03-16T05:40:38.177Z,96800.34
2023-03-16T05:43:37.242Z,96808.34
2023-03-16T05:46:26.015Z,96813.03
2023-03-16T05:49:16.075Z,96796.41
2023-03-16T05:52:05.223Z,96814.22
2023-03-16T05:54:58.324Z,96805.53
2023-03-16T05:57:47.283Z,96805.69
2023-03-16T06:00:38.245Z,96812.03
2023-03-16T06:03:42.265Z,96811.53
2023-03-16T06:06:34.720Z,96809.34
2023-03-16T06:09:31.102Z,96818.53
2023-03-16T06:12:21.308Z,96820.84
2023-03-16T06:15:11.925Z,96817.50
2023-03-16T06:18:00.945Z,96818.44
2023-03-16T06:20:49.737Z,96817.50
2023-03-16T06:23:39.890Z,96830.31
2023-03-16T06:26:30.243Z,96817.34
2023-03-16T06:29:20.892Z,96824.34
2023-03-16T06:32:09.589Z,96829.38
2023-03-16T06:35:02.431Z,96825.72
2023-03-16T06:37:52.309Z,96834.53
2023-03-16T06:40:55.005Z,96819.56
2023-03-16T06:43:45.398Z,96832.41
2023-03-16T06:46:35.757Z,96831.25
2023-03-16T06:49:26.051Z,96833.41
2023-03-16T06:52:14.995Z,96826.25
2023-03-16T06:55:04.362Z,96826.25
2023-03-16T06:57:55.866Z,96826.44
2023-03-16T07:00:45.998Z,96840.25
2023-03-16T07:03:36.251Z,96835.56
2023-03-16T07:06:39.798Z,96839.75
2023-03-16T07:09:28.889Z,96838.03
2023-03-16T07:12:17.577Z,96844.84
2023-03-16T07:15:07.271Z,96844.50
2023-03-16T07:17:56.824Z,96850.13
2023-03-16T07:20:48.761Z,96843.28
2023-03-16T07:23:37.730Z,96852.78
2023-03-16T07:26:28.413Z,96844.88
2023-03-16T07:29:20.686Z,96856.34
2023-03-16T07:32:10.154Z,96848.97
2023-03-16T07:35:00.374Z,96856.31
2023-03-16T07:37:54.149Z,96860.44
2023-03-16T07:40:43.497Z,96868.41
2023-03-16T07:43:40.015Z,96858.50
2023-03-16T07:46:32.753Z,96863.31
2023-03-16T07:49:22.205Z,96876.28
2023-03-16T07:52:13.908Z,96868.44
2023-03-16T07:55:05.439Z,96886.09
2023-03-16T07:57:55.298Z,96876.78
2023-03-16T08:00:51.152Z,96895.56
2023-03-16T08:03:42.103Z,96897.56
2023-03-16T08:06:31.094Z,96906.13
2023-03-16T08:09:21.333Z,96902.56
2023-03-16T08:12:12.289Z,96896.28
2023-03-16T08:15:02.210Z,96901.19
2023-03-16T08:17:54.397Z,96901.50
2023-03-16T08:20:46.341Z,96896.59
2023-03-16T08:23:36.146Z,96892.38
2023-03-16T08:26:26.530Z,96892.44
2023-03-16T08:29:21.181Z,96884.09
2023-03-16T08:32:44.000Z,96882.00
2023-03-16T08:36:03.160Z,96874.88
2023-03-16T08:39:06.604Z,96876.81
2023-03-16T08:42:02.600Z,96880.31
2023-03-16T08:45:11.736Z,96887.09
2023-03-16T08:51:31.122Z,96884.31
2023-03-16T08:54:19.820Z,96880.53
2023-03-16T08:57:09.256Z,96877.31
2023-03-16T08:59:57.989Z,96874.84
2023-03-16T09:02:48.155Z,96876.38
2023-03-16T09:05:36.822Z,96878.28
2023-03-16T09:08:27.065Z,96876.88
2023-03-16T09:11:17.694Z,96872.59
2023-03-16T09:14:07.394Z,96873.09
2023-03-16T09:16:56.516Z,96878.25
2023-03-16T09:19:51.667Z,96873.94
2023-03-16T09:22:41.091Z,96879.13
2023-03-16T09:25:30.879Z,96879.13
2023-03-16T09:28:22.035Z,96881.81
2023-03-16T09:31:18.323Z,96873.75
2023-03-16T09:34:07.035Z,96875.16
2023-03-16T09:36:57.617Z,96854.19
2023-03-16T09:39:47.931Z,96873.75
2023-03-16T09:42:38.952Z,96877.66
2023-03-16T09:45:36.475Z,96864.28
2023-03-16T09:48:28.567Z,96871.41
2023-03-16T09:51:22.908Z,96869.31
2023-03-16T09:54:22.803Z,96877.00
2023-03-16T09:57:23.911Z,96861.94
2023-03-16T10:00:19.472Z,96878.91
2023-03-16T10:03:22.295Z,96874.34
2023-03-16T10:06:15.398Z,96871.88
2023-03-16T10:09:17.071Z,96877.72
2023-03-16T10:12:08.995Z,96878.03
2023-03-16T10:15:05.135Z,96865.28
2023-03-16T10:17:59.393Z,96864.19
2023-03-16T10:20:48.287Z,96859.44
2023-03-16T10:23:40.260Z,96858.22
2023-03-16T10:26:38.234Z,96866.53
2023-03-16T10:29:33.128Z,96867.38
2023-03-16T10:32:24.416Z,96864.09
2023-03-16T10:35:26.480Z,96861.19
2023-03-16T10:38:34.115Z,96854.72
2023-03-16T10:41:28.262Z,96849.78
2023-03-16T10:44:24.612Z,96849.34
2023-03-16T10:47:25.015Z,96847.47
2023-03-16T10:50:17.971Z,96844.91
2023-03-16T10:53:19.353Z,96840.47
2023-03-16T10:56:13.832Z,96836.03
2023-03-16T10:59:03.414Z,96830.28
2023-03-16T11:01:52.704Z,96834.44
2023-03-16T11:04:42.913Z,96823.25
2023-03-16T11:07:32.034Z,96818.72
2023-03-16T11:10:29.434Z,96812.31
2023-03-16T11:13:21.149Z,96818.72
2023-03-16T11:16:24.737Z,96814.69
2023-03-16T11:19:20.880Z,96809.47
2023-03-16T11:22:15.447Z,96802.56
2023-03-16T11:25:13.247Z,96801.31
2023-03-16T11:28:14.512Z,96807.84
2023-03-16T11:31:14.714Z,96800.84
2023-03-16T11:34:03.499Z,96784.19
2023-03-16T11:36:56.083Z,96791.03
2023-03-16T11:39:57.847Z,96775.09
2023-03-16T11:42:57.197Z,96785.00
2023-03-16T11:45:53.204Z,96778.38
2023-03-16T11:48:49.791Z,96777.00
2023-03-16T11:51:45.817Z,96776.22
2023-03-16T11:54:52.518Z,96771.50
2023-03-16T11:57:53.963Z,96765.44
2023-03-16T12:00:53.473Z,96760.72
2023-03-16T12:04:07.512Z,96767.50
2023-03-16T12:07:18.320Z,96764.56
2023-03-16T12:10:22.312Z,96755.41
2023-03-16T12:13:30.541Z,96750.09
2023-03-16T12:16:23.237Z,96746.91
2023-03-16T12:19:17.904Z,96751.16
2023-03-16T12:22:16.819Z,96750.50
2023-03-16T12:25:14.890Z,96747.34
2023-03-16T12:28:11.975Z,96751.19
2023-03-16T12:31:10.326Z,96747.19
2023-03-16T12:34:09.632Z,96748.13
2023-03-16T12:37:22.435Z,96746.56
2023-03-16T12:40:27.022Z,96725.69
2023-03-16T12:43:38.500Z,96723.22
2023-03-16T12:46:37.717Z,96723.50
2023-03-16T12:49:28.805Z,96725.69
2023-03-16T12:52:17.456Z,96712.75
2023-03-16T12:55:15.694Z,96692.97
2023-03-16T12:58:07.579Z,96707.69
2023-03-16T13:01:00.924Z,96702.50
2023-03-16T13:03:51.816Z,96698.81
2023-03-16T13:06:45.390Z,96698.31
2023-03-16T13:09:38.271Z,96702.25
2023-03-16T13:12:28.675Z,96710.75
2023-03-16T13:15:29.622Z,96702.50
2023-03-16T13:18:24.970Z,96697.59
2023-03-16T13:21:20.952Z,96697.03
2023-03-16T13:24:28.505Z,96696.78
2023-03-16T13:27:24.260Z,96688.59
2023-03-16T13:30:23.558Z,96689.94
2023-03-16T13:33:20.790Z,96693.41
2023-03-16T13:36:14.140Z,96688.88
2023-03-16T13:39:07.790Z,96683.91
2023-03-16T13:41:59.914Z,96681.94
2023-03-16T13:44:48.585Z,96681.44
2023-03-16T13:47:37.635Z,96674.91
2023-03-16T13:50:26.377Z,96675.16
2023-03-16T13:53:23.264Z,96680.09
2023-03-16T13:56:15.833Z,96668.56
2023-03-16T13:59:06.181Z,96671.00
2023-03-16T14:01:59.687Z,96657.56
2023-03-16T14:04:49.338Z,96656.25
2023-03-16T14:07:38.614Z,96657.69
2023-03-16T14:10:33.341Z,96657.94
2023-03-16T14:13:36.264Z,96653.28
2023-03-16T14:16:28.100Z,96652.22
2023-03-16T14:19:20.232Z,96645.06
2023-03-16T14:22:13.908Z,96661.94
2023-03-16T14:25:05.147Z,96648.28
2023-03-16T14:28:01.043Z,96646.38
2023-03-16T14:30:54.712Z,96654.81
2023-03-16T14:33:46.099Z,96646.00
2023-03-16T14:36:37.331Z,96641.31
2023-03-16T14:39:28.916Z,96645.16
2023-03-16T14:42:22.553Z,96649.56
2023-03-16T14:45:16.124Z,96641.84
2023-03-16T14:48:08.657Z,96650.84
2023-03-16T14:50:59.787Z,96649.88
2023-03-16T14:53:48.689Z,96645.59
2023-03-16T14:56:37.454Z,96634.09
2023-03-16T14:59:26.159Z,96629.34
2023-03-16T15:02:20.398Z,96650.97
2023-03-16T15:05:11.494Z,96636.50
2023-03-16T15:08:01.085Z,96632.41
2023-03-16T15:10:50.812Z,96628.81
2023-03-16T15:14:04.412Z,96619.81
2023-03-16T15:16:54.524Z,96626.06
2023-03-16T15:19:44.494Z,96630.50
2023-03-16T15:22:36.885Z,96624.75
2023-03-16T15:25:35.805Z,96633.81
2023-03-16T15:28:25.952Z,96615.22
2023-03-16T15:31:15.748Z,96615.97
2023-03-16T15:34:04.505Z,96591.69
2023-03-16T15:36:55.287Z,96604.97
2023-03-16T15:39:44.225Z,96593.47
2023-03-16T15:42:32.870Z,96600.88
2023-03-16T15:45:23.694Z,96572.72
2023-03-16T15:48:13.581Z,96586.00
2023-03-16T15:51:05.336Z,96579.13
2023-03-16T15:54:02.109Z,96580.59
2023-03-16T15:56:54.550Z,96580.22
2023-03-16T15:59:43.923Z,96572.09
2023-03-16T16:02:33.453Z,96573.94
2023-03-16T16:05:24.840Z,96574.56
2023-03-16T16:08:13.959Z,96565.78
2023-03-16T16:11:09.258Z,96567.97
2023-03-16T16:14:00.312Z,96558.53
2023-03-16T16:16:49.299Z,96513.16
2023-03-16T16:19:39.265Z,96551.16
2023-03-16T16:22:28.370Z,96556.75
2023-03-16T16:25:17.401Z,96549.84
2023-03-16T16:28:15.406Z,96556.19
2023-03-16T16:31:13.037Z,96560.28
2023-03-16T16:34:01.752Z,96545.91
2023-03-16T16:36:51.610Z,96561.34
2023-03-16T16:39:40.771Z,96562.06
2023-03-16T16:42:30.298Z,96566.13
2023-03-16T16:45:22.368Z,96544.75
2023-03-16T16:48:29.934Z,96560.66
2023-03-16T16:51:21.568Z,96564.94
2023-03-16T16:54:17.871Z,96571.75
2023-03-16T16:57:06.863Z,96582.25
2023-03-16T16:59:56.038Z,96580.56
2023-03-16T17:02:47.891Z,96583.88
2023-03-16T17:05:37.539Z,96579.66
2023-03-16T17:08:27.501Z,96581.88
2023-03-16T17:11:22.260Z,96578.13
2023-03-16T17:14:17.773Z,96556.22
2023-03-16T17:17:13.334Z,96584.84
2023-03-16T17:20:05.828Z,96579.81
2023-03-16T17:22:56.130Z,96583.47
2023-03-16T17:25:44.767Z,96597.00
2023-03-16T17:28:39.120Z,96589.56
2023-03-16T17:31:31.030Z,96586.75
2023-03-16T17:34:22.817Z,96561.88
2023-03-16T17:37:18.270Z,96594.25
2023-03-16T17:40:07.649Z,96586.59
2023-03-16T17:42:57.286Z,96606.59
2023-03-16T17:45:47.786Z,96594.81
2023-03-16T17:48:36.456Z,96602.34
2023-03-16T17:51:25.986Z,96608.91
2023-03-16T17:54:16.471Z,96602.75
2023-03-16T17:57:05.489Z,96600.25
2023-03-16T17:59:55.917Z,96584.69
2023-03-16T18:02:49.694Z,96590.16
2023-03-16T18:05:38.531Z,96591.22
2023-03-16T18:08:29.553Z,96566.63
2023-03-16T18:11:23.237Z,96580.81
2023-03-16T18:14:25.288Z,96582.81
2023-03-16T18:17:23.036Z,96577.13
2023-03-16T18:20:22.106Z,96571.53
2023-03-16T18:23:16.581Z,96572.31
2023-03-16T18:26:06.991Z,96577.22
2023-03-16T18:28:58.332Z,96576.31
2023-03-16T18:31:48.499Z,96574.25
2023-03-16T18:34:38.037Z,96582.41
2023-03-16T18:37:28.375Z,96572.28
2023-03-16T18:40:19.822Z,96573.91
2023-03-16T18:43:15.495Z,96572.28
2023-03-16T18:46:06.451Z,96567.47
2023-03-16T18:48:57.894Z,96564.72
2023-03-16T18:51:51.364Z,96562.50
2023-03-16T18:54:40.091Z,96562.56
2023-03-16T18:57:31.680Z,96559.06
2023-03-16T19:00:22.838Z,96549.59
2023-03-16T19:03:23.533Z,96531.56
2023-03-16T19:06:19.665Z,96533.31
2023-03-16T19:09:15.073Z,96539.19
2023-03-16T19:12:05.852Z,96550.59
2023-03-16T19:14:54.446Z,96550.06
2023-03-16T19:17:44.057Z,96543.03
2023-03-16T19:20:36.369Z,96543.50
2023-03-16T19:23:29.575Z,96536.34
2023-03-16T19:26:19.605Z,96547.69
2023-03-16T19:29:08.346Z,96551.84
2023-03-16T19:31:58.611Z,96547.34
2023-03-16T19:34:47.798Z,96552.13
2023-03-16T19:37:37.752Z,96552.94
2023-03-16T19:40:27.034Z,96550.75
2023-03-16T19:43:18.656Z,96536.28
2023-03-16T19:46:07.749Z,96535.25
2023-03-16T19:48:57.126Z,96547.53
2023-03-16T19:51:47.034Z,96540.13
2023-03-16T19:54:39.430Z,96540.91
2023-03-16T19:57:30.307Z,96539.88
2023-03-16T20:00:25.270Z,96544.88
2023-03-16T20:03:14.929Z,96529.41
2023-03-16T20:06:03.825Z,96548.03
2023-03-16T20:08:53.431Z,96550.28
2023-03-16T20:11:43.564Z,96543.88
2023-03-16T20:14:34.719Z,96542.63
2023-03-16T20:17:25.970Z,96523.41
2023-03-16T20:20:24.726Z,96538.28
2023-03-16T20:23:23.031Z,96532.72
2023-03-16T20:26:18.790Z,96523.59
2023-03-16T20:29:18.233Z,96526.69
2023-03-16T20:32:15.570Z,96526.09
2023-03-16T20:35:04.293Z,96530.47
2023-03-16T20:37:54.155Z,96534.41
2023-03-16T20:40:44.511Z,96530.28
2023-03-16T20:43:34.021Z,96530.47
2023-03-16T20:46:27.346Z,96539.56
2023-03-16T20:49:32.733Z,96525.53
2023-03-16T20:52:23.924Z,96514.78
2023-03-16T20:55:16.374Z,96524.78
2023-03-16T20:58:18.025Z,96512.63
2023-03-16T21:01:07.079Z,96519.25
2023-03-16T21:03:57.281Z,96513.50
2023-03-16T21:06:48.794Z,96512.47
2023-03-16T21:09:37.852Z,96513.50
2023-03-16T21:12:29.894Z,96511.41
2023-03-16T21:15:23.702Z,96515.13
2023-03-16T21:18:18.833Z,96515.16
2023-03-16T21:21:13.953Z,96503.19
2023-03-16T21:24:03.615Z,96503.22
2023-03-16T21:26:52.381Z,96503.41
2023-03-16T21:29:41.536Z,96506.94
2023-03-16T21:32:30.956Z,96505.09
2023-03-16T21:35:20.298Z,96496.59
2023-03-16T21:38:15.118Z,96492.25
2023-03-16T21:41:04.563Z,96503.59
2023-03-16T21:43:54.934Z,96505.09
2023-03-16T21:46:44.473Z,96503.63
2023-03-16T21:49:33.892Z,96466.88
2023-03-16T21:52:25.024Z,96501.16
2023-03-16T21:55:25.059Z,96490.41
2023-03-16T21:58:14.135Z,96483.38
2023-03-16T22:01:03.465Z,96485.88
2023-03-16T22:03:54.894Z,96491.88
2023-03-16T22:06:46.075Z,96493.34
2023-03-16T22:09:35.090Z,96489.81
2023-03-16T22:12:25.687Z,96491.88
2023-03-16T22:15:16.027Z,96487.94
2023-03-16T22:18:08.839Z,96483.41
2023-03-16T22:20:59.520Z,96482.59
2023-03-16T22:23:48.583Z,96491.09
2023-03-16T22:26:37.814Z,96485.72
2023-03-16T22:29:29.535Z,96489.22
2023-03-16T22:32:23.015Z,96485.91
2023-03-16T22:35:27.318Z,96484.69
2023-03-16T22:38:16.527Z,96490.69
2023-03-16T22:41:18.505Z,96492.75
2023-03-16T22:44:15.300Z,96490.09
2023-03-16T22:47:07.592Z,96490.09
2023-03-16T22:49:57.177Z,96480.00
2023-03-16T22:52:50.316Z,96487.84
2023-03-16T22:55:41.182Z,96486.59
2023-03-16T22:58:33.681Z,96465.53
2023-03-16T23:01:24.620Z,96481.00
2023-03-16T23:04:17.077Z,96478.97
2023-03-16T23:07:12.693Z,96472.13
2023-03-16T23:10:02.978Z,96474.00
2023-03-16T23:12:53.537Z,96476.03
2023-03-16T23:15:43.609Z,96466.13
2023-03-16T23:18:32.185Z,96460.34
2023-03-16T23:21:25.168Z,96462.81
2023-03-16T23:24:14.856Z,96464.09
2023-03-16T23:27:05.865Z,96458.72
2023-03-16T23:29:54.959Z,96460.75
2023-03-16T23:32:44.056Z,96462.81
2023-03-16T23:35:33.894Z,96458.72
2023-03-16T23:38:24.004Z,96466.97
2023-03-16T23:41:14.741Z,96463.69
2023-03-16T23:44:06.487Z,96462.00
2023-03-16T23:46:55.597Z,96464.47
2023-03-16T23:49:45.124Z,96457.25
2023-03-16T23:52:33.772Z,96455.41
2023-03-16T23:55:25.176Z,96454.78
2023-03-16T23:58:15.986Z,96457.47
